Barcelona Knutsen — EACW — position and weather

sailwx.info

Track history (hours):
 
Tides and Currents Weather Stations Pressure Air Temp Water Temp Dewpoint Dewpoint Depression Visibility Wind Speed Wind Dir Waves Ship Positions

Barcelona Knutsen

Last reported at 2014-Aug-08 19:28 UTC. Time now 2014-Nov-01 01:21 UTC.
Position N 44°09' W 003°45'.
Warning: this ship's position is months out of date.

Length 290 m; draft 11.2 m.

Type: Ship (hazmat cat A). MMSI: 224436000.

Date/timePositionNaut miles runAvg speedWind from/ knotsBaromVisibWave heightAir tempDewpointWater temp
2014-Aug-08 19:28N 44°09' W 003°45'27 8.9
2014-Aug-08 16:28N 43°42' W 003°49'1516.2
2014-Aug-08 15:34N 43°39' W 003°29'1716.5
2014-Aug-08 14:33N 43°28' W 003°12'5 4.8
2014-Aug-08 13:33N 43°24' W 003°08'0 0.1
2014-Aug-08 12:33N 43°24' W 003°08'0 0.1
2014-Aug-08 11:33N 43°24' W 003°08'0 0.0
2014-Aug-08 10:34N 43°24' W 003°08'0 0.1
2014-Aug-08 09:33N 43°24' W 003°08'0 0.0
2014-Aug-08 08:33N 43°24' W 003°08'0 0.1
2014-Aug-08 07:34N 43°24' W 003°08'0 0.1
2014-Aug-08 06:33N 43°24' W 003°08'0 0.1
2014-Aug-08 05:33N 43°24' W 003°08'0 0.0
2014-Aug-08 04:33N 43°24' W 003°08'0 0.0
2014-Aug-07 20:21N 43°24' W 003°08'0 0.0
2014-Aug-07 19:33N 43°24' W 003°08'0 0.0
2014-Aug-07 18:33N 43°24' W 003°08'0 0.1
2014-Aug-07 17:33N 43°24' W 003°08'0 0.1
2014-Aug-07 16:33N 43°24' W 003°08'0 0.1
2014-Aug-07 15:33N 43°24' W 003°08'3 2.8
2014-Aug-07 14:33N 43°22' W 003°05'1 0.8
2014-Aug-07 13:31N 43°22' W 003°06'0 0.0
2014-Aug-07 12:31N 43°22' W 003°06'0 0.0
2014-Aug-07 11:31N 43°22' W 003°06'0 0.0
2014-Aug-07 10:31N 43°22' W 003°06'0 0.0
2014-Aug-07 09:31N 43°22' W 003°06'0 0.0
2014-Aug-07 08:31N 43°22' W 003°06'0 0.0
2014-Aug-07 07:31N 43°22' W 003°06'0 0.0
2014-Aug-07 06:31N 43°22' W 003°06'0 0.0
2014-Aug-07 05:31N 43°22' W 003°06'0 0.0
2014-Aug-07 04:31N 43°22' W 003°06'0 0.0
2014-Aug-07 03:31N 43°22' W 003°06'0 0.0
2014-Aug-07 02:31N 43°22' W 003°06'0 0.0
2014-Aug-07 01:31N 43°22' W 003°06'0 0.0
2014-Aug-07 00:31N 43°22' W 003°06'0 0.0
2014-Aug-06 23:31N 43°22' W 003°06'0 0.0
2014-Aug-06 22:31N 43°22' W 003°06'0 0.0
2014-Aug-06 21:31N 43°22' W 003°06'0 0.4
2014-Aug-06 20:34N 43°22' W 003°05'6 6.3
2014-Aug-06 19:34N 43°27' W 003°11'1312.8
2014-Aug-06 18:34N 43°36' W 003°24'1515.0
2014-Aug-06 17:33N 43°42' W 003°43'1616.4
2014-Aug-06 16:33N 43°44' W 004°05'  
Track history (hours):
 
Tides and Currents Weather Stations Pressure Air Temp Water Temp Dewpoint Dewpoint Depression Visibility Wind Speed Wind Dir Waves Ship Positions

Barcelona Knutsen

Last reported at 2014-Aug-08 19:28 UTC. Time now 2014-Nov-01 01:21 UTC.
Position N 44°09' W 003°45'.
Warning: this ship's position is months out of date.

Length 290 m; draft 11.2 m.

Type: Ship (hazmat cat A). MMSI: 224436000.

Date/timePositionNaut miles runAvg speedWind from/ knotsBaromVisibWave heightAir tempDewpointWater temp
2014-Aug-08 19:28N 44°09' W 003°45'27 8.9
2014-Aug-08 16:28N 43°42' W 003°49'1516.2
2014-Aug-08 15:34N 43°39' W 003°29'1716.5
2014-Aug-08 14:33N 43°28' W 003°12'5 4.8
2014-Aug-08 13:33N 43°24' W 003°08'0 0.1
2014-Aug-08 12:33N 43°24' W 003°08'0 0.1
2014-Aug-08 11:33N 43°24' W 003°08'0 0.0
2014-Aug-08 10:34N 43°24' W 003°08'0 0.1
2014-Aug-08 09:33N 43°24' W 003°08'0 0.0
2014-Aug-08 08:33N 43°24' W 003°08'0 0.1
2014-Aug-08 07:34N 43°24' W 003°08'0 0.1
2014-Aug-08 06:33N 43°24' W 003°08'0 0.1
2014-Aug-08 05:33N 43°24' W 003°08'0 0.0
2014-Aug-08 04:33N 43°24' W 003°08'0 0.0
2014-Aug-07 20:21N 43°24' W 003°08'0 0.0
2014-Aug-07 19:33N 43°24' W 003°08'0 0.0
2014-Aug-07 18:33N 43°24' W 003°08'0 0.1
2014-Aug-07 17:33N 43°24' W 003°08'0 0.1
2014-Aug-07 16:33N 43°24' W 003°08'0 0.1
2014-Aug-07 15:33N 43°24' W 003°08'3 2.8
2014-Aug-07 14:33N 43°22' W 003°05'1 0.8
2014-Aug-07 13:31N 43°22' W 003°06'0 0.0
2014-Aug-07 12:31N 43°22' W 003°06'0 0.0
2014-Aug-07 11:31N 43°22' W 003°06'0 0.0
2014-Aug-07 10:31N 43°22' W 003°06'0 0.0
2014-Aug-07 09:31N 43°22' W 003°06'0 0.0
2014-Aug-07 08:31N 43°22' W 003°06'0 0.0
2014-Aug-07 07:31N 43°22' W 003°06'0 0.0
2014-Aug-07 06:31N 43°22' W 003°06'0 0.0
2014-Aug-07 05:31N 43°22' W 003°06'0 0.0
2014-Aug-07 04:31N 43°22' W 003°06'0 0.0
2014-Aug-07 03:31N 43°22' W 003°06'0 0.0
2014-Aug-07 02:31N 43°22' W 003°06'0 0.0
2014-Aug-07 01:31N 43°22' W 003°06'0 0.0
2014-Aug-07 00:31N 43°22' W 003°06'0 0.0
2014-Aug-06 23:31N 43°22' W 003°06'0 0.0
2014-Aug-06 22:31N 43°22' W 003°06'0 0.0
2014-Aug-06 21:31N 43°22' W 003°06'0 0.4
2014-Aug-06 20:34N 43°22' W 003°05'6 6.3
2014-Aug-06 19:34N 43°27' W 003°11'1312.8
2014-Aug-06 18:34N 43°36' W 003°24'1515.0
2014-Aug-06 17:33N 43°42' W 003°43'1616.4
2014-Aug-06 16:33N 43°44' W 004°05'  

Dump ship's entire track history